TAFOR
Diposting tanggal: 30 Agustus 2018

Pukul :

Isi :

TAF WAGI 172300Z 1800/1812 30005KT 8000 BKN012 BECMG 1802/1803 6000 -RA BKN011 TEMPO 1805/1808 2000 TSRA FEW011CB BKN011=